Time;durP1;ratioP1;P1;durP2;ratioP2;P2;SDS_P1;SDS_P2;PMS_P1;PMS_P2;Temp;Humidity;BMP_temperature;BMP_pressure;BME280_temperature;BME280_humidity;BME280_pressure;Samples;Min_cycle;Max_cycle;Signal;HPM_P1;HPM_P2
2024/02/08 00:01:38;;;;;;;11.23;2.13;;;19.30;69.70;;;;;;5060938;28;21006;-61
2024/02/08 00:04:04;;;;;;;5.45;1.30;;;19.10;70.20;;;;;;5060795;28;20521;-56
2024/02/08 00:06:31;;;;;;;4.57;1.10;;;19.10;71.10;;;;;;5065324;28;20085;-70
2024/02/08 00:09:01;;;;;;;7.15;1.70;;;19.10;72.20;;;;;;5062344;28;20422;-60
2024/02/08 00:11:30;;;;;;;6.93;2.20;;;19.00;73.10;;;;;;5056623;28;20488;-69
2024/02/08 00:13:57;;;;;;;12.80;1.48;;;18.90;72.30;;;;;;5059841;28;20084;-60
2024/02/08 00:16:23;;;;;;;14.80;1.50;;;18.80;72.90;;;;;;5063792;28;20119;-54
2024/02/08 00:18:50;;;;;;;5.35;1.20;;;18.60;72.50;;;;;;5059344;28;20085;-68
2024/02/08 00:21:16;;;;;;;19.27;2.20;;;18.60;72.90;;;;;;5063058;28;20484;-59
2024/02/08 00:23:43;;;;;;;12.77;1.58;;;18.80;72.60;;;;;;5057234;28;20084;-59
2024/02/08 00:26:09;;;;;;;5.63;1.30;;;18.60;72.30;;;;;;5063278;28;20592;-60
2024/02/08 00:28:36;;;;;;;10.82;1.90;;;18.50;72.00;;;;;;5063519;28;20073;-58
2024/02/08 00:31:04;;;;;;;14.07;1.98;;;18.40;72.20;;;;;;5062358;28;20243;-64
2024/02/08 00:33:33;;;;;;;20.65;2.50;;;18.30;71.20;;;;;;5060962;28;20085;-59
2024/02/08 00:36:03;;;;;;;11.45;2.13;;;18.30;70.60;;;;;;5060177;28;20088;-59
2024/02/08 00:38:29;;;;;;;10.65;2.40;;;18.20;70.50;;;;;;5060147;28;20089;-59
2024/02/08 00:40:56;;;;;;;9.52;1.52;;;18.20;71.30;;;;;;5059636;28;20523;-60
2024/02/08 00:43:23;;;;;;;12.35;1.67;;;18.10;71.70;;;;;;5062084;28;20417;-53
2024/02/08 00:45:49;;;;;;;9.90;2.15;;;17.80;72.50;;;;;;5060534;28;20579;-68
2024/02/08 00:48:22;;;;;;;8.68;2.20;;;17.70;72.70;;;;;;5059790;28;20240;-58
2024/02/08 00:50:48;;;;;;;10.18;2.17;;;17.70;72.70;;;;;;5059441;28;20080;-60
2024/02/08 00:53:15;;;;;;;7.53;1.83;;;17.70;72.70;;;;;;5062313;28;20110;-59
2024/02/08 00:55:43;;;;;;;8.40;3.10;;;17.60;72.50;;;;;;5061748;28;20073;-60
2024/02/08 00:58:15;;;;;;;9.95;4.72;;;17.50;72.70;;;;;;5059957;28;20096;-60
2024/02/08 01:00:42;;;;;;;12.63;2.83;;;17.50;73.10;;;;;;5066459;28;20085;-52
2024/02/08 01:03:10;;;;;;;11.32;3.35;;;17.40;72.90;;;;;;5063034;28;20077;-58
2024/02/08 01:05:36;;;;;;;15.40;2.08;;;17.30;72.60;;;;;;5059585;28;20081;-61
2024/02/08 01:08:03;;;;;;;9.20;2.28;;;17.30;72.90;;;;;;5063077;28;20073;-61
2024/02/08 01:10:30;;;;;;;14.88;2.17;;;17.20;73.30;;;;;;5059557;28;20077;-60
2024/02/08 01:12:57;;;;;;;8.95;1.90;;;17.10;73.40;;;;;;5059192;28;20131;-60
2024/02/08 01:15:23;;;;;;;11.02;2.28;;;17.00;73.10;;;;;;5061859;28;20072;-58
2024/02/08 01:17:51;;;;;;;10.05;2.22;;;17.00;73.50;;;;;;5059101;28;20599;-59
2024/02/08 01:20:22;;;;;;;13.60;2.30;;;16.90;73.10;;;;;;5058254;28;20073;-58
2024/02/08 01:22:50;;;;;;;8.50;2.30;;;16.90;73.20;;;;;;5061348;28;20168;-60
2024/02/08 01:25:17;;;;;;;10.38;2.30;;;16.80;73.30;;;;;;5062664;28;20077;-61
2024/02/08 01:27:44;;;;;;;10.63;2.42;;;16.80;73.50;;;;;;5060259;28;20077;-61
2024/02/08 01:30:15;;;;;;;10.40;2.25;;;16.70;73.40;;;;;;5057927;28;20117;-62
2024/02/08 01:32:43;;;;;;;10.75;2.00;;;16.60;72.70;;;;;;5062853;28;20571;-61
2024/02/08 01:35:21;;;;;;;10.45;2.10;;;16.60;72.70;;;;;;5059394;28;20069;-67
2024/02/08 01:37:49;;;;;;;10.50;2.30;;;16.50;73.70;;;;;;5061426;28;20134;-65
2024/02/08 01:40:19;;;;;;;10.57;2.20;;;16.40;74.60;;;;;;5060402;28;20077;-66
2024/02/08 01:42:46;;;;;;;6.30;2.03;;;16.40;74.70;;;;;;5057454;28;20101;-52
2024/02/08 01:45:38;;;;;;;21.17;2.00;;;16.30;75.10;;;;;;5056878;28;20081;-60
2024/02/08 01:48:11;;;;;;;33.42;17.65;;;16.50;75.30;;;;;;5056018;28;20089;-59
2024/02/08 01:50:52;;;;;;;11.52;2.38;;;16.60;75.30;;;;;;5058554;28;20073;-55
2024/02/08 01:53:28;;;;;;;17.15;5.68;;;16.70;74.90;;;;;;5060478;28;20128;-59
2024/02/08 01:55:58;;;;;;;15.15;2.70;;;16.70;74.20;;;;;;5059929;28;20088;-59
2024/02/08 01:58:26;;;;;;;11.90;2.70;;;16.70;73.50;;;;;;5057762;28;20544;-60
2024/02/08 02:00:55;;;;;;;9.70;1.98;;;16.70;73.40;;;;;;5061185;28;20486;-59
2024/02/08 02:03:23;;;;;;;14.38;3.38;;;16.80;73.70;;;;;;5060234;28;20181;-59
2024/02/08 02:05:50;;;;;;;10.90;2.22;;;16.70;74.40;;;;;;5057465;28;20100;-57
2024/02/08 02:08:21;;;;;;;11.55;2.38;;;16.60;75.30;;;;;;5059285;28;20089;-60
2024/02/08 02:11:11;;;;;;;18.90;2.45;;;16.60;75.20;;;;;;5055824;28;20074;-58
2024/02/08 02:13:39;;;;;;;13.35;2.58;;;16.50;75.80;;;;;;5060845;28;20088;-58
2024/02/08 02:16:06;;;;;;;12.05;2.00;;;16.40;75.60;;;;;;5059483;28;20083;-59
2024/02/08 02:18:33;;;;;;;12.88;2.50;;;16.40;76.00;;;;;;5060492;28;20084;-58
2024/02/08 02:21:01;;;;;;;19.50;2.63;;;16.40;76.30;;;;;;5060203;28;20195;-59
2024/02/08 02:23:28;;;;;;;7.72;2.38;;;16.40;75.50;;;;;;5057328;28;20069;-58
2024/02/08 02:25:55;;;;;;;17.00;2.58;;;16.40;74.90;;;;;;5060051;28;20121;-60
2024/02/08 02:28:21;;;;;;;7.03;2.33;;;16.50;73.70;;;;;;5058614;28;20123;-59
2024/02/08 02:30:50;;;;;;;7.15;2.08;;;16.40;70.80;;;;;;5064499;28;20073;-58
2024/02/08 02:33:19;;;;;;;13.15;2.28;;;16.40;70.80;;;;;;5066414;28;20142;-58
2024/02/08 02:35:48;;;;;;;11.98;2.50;;;16.30;71.20;;;;;;5061664;28;20081;-58
2024/02/08 02:38:18;;;;;;;10.88;2.05;;;16.40;70.30;;;;;;5061763;28;20076;-52
2024/02/08 02:40:48;;;;;;;14.98;5.80;;;16.30;70.20;;;;;;5064645;28;20166;-57
2024/02/08 02:43:15;;;;;;;12.77;2.42;;;16.20;71.10;;;;;;5057621;28;20085;-58
2024/02/08 02:45:42;;;;;;;10.63;3.25;;;16.10;70.80;;;;;;5062460;28;21357;-59
2024/02/08 02:48:09;;;;;;;8.70;2.78;;;16.10;70.60;;;;;;5059530;28;20081;-58
2024/02/08 02:50:41;;;;;;;12.85;3.13;;;16.10;71.00;;;;;;5062355;28;20065;-59
2024/02/08 02:53:09;;;;;;;10.65;2.55;;;16.00;70.90;;;;;;5061093;28;20138;-58
2024/02/08 02:55:36;;;;;;;13.60;2.92;;;15.90;70.50;;;;;;5063602;28;20076;-59
2024/02/08 02:58:04;;;;;;;9.25;2.22;;;15.90;70.90;;;;;;5063694;28;20101;-58
2024/02/08 03:00:37;;;;;;;7.40;1.55;;;15.80;70.90;;;;;;5061128;28;20085;-59
2024/02/08 03:03:08;;;;;;;12.10;1.60;;;15.70;71.00;;;;;;5060235;28;20101;-59
2024/02/08 03:05:36;;;;;;;8.95;2.03;;;15.70;70.70;;;;;;5063623;28;20084;-60
2024/02/08 03:08:05;;;;;;;11.93;1.98;;;15.70;71.00;;;;;;5062832;28;20566;-58
2024/02/08 03:10:34;;;;;;;13.40;2.10;;;15.70;71.20;;;;;;5062216;28;20129;-60
2024/02/08 03:13:01;;;;;;;7.32;1.70;;;15.70;70.00;;;;;;5064341;28;20105;-59
2024/02/08 03:15:29;;;;;;;11.20;6.00;;;15.80;69.60;;;;;;5063036;28;20092;-58
2024/02/08 03:17:55;;;;;;;8.45;2.28;;;15.80;70.70;;;;;;5060531;28;22057;-58
2024/02/08 03:20:29;;;;;;;9.15;2.60;;;15.70;70.80;;;;;;5060871;28;20081;-59
2024/02/08 03:22:59;;;;;;;9.73;2.67;;;15.70;71.30;;;;;;5060691;28;20084;-60
2024/02/08 03:25:26;;;;;;;8.52;1.83;;;15.60;71.70;;;;;;5062463;28;20122;-59
2024/02/08 03:27:53;;;;;;;5.70;1.60;;;15.60;72.10;;;;;;5062393;28;20076;-58
2024/02/08 03:30:40;;;;;;;7.15;2.13;;;15.60;72.10;;;;;;5063969;28;20073;-57
2024/02/08 03:33:15;;;;;;;8.40;1.67;;;15.50;72.10;;;;;;5058906;28;20117;-59
2024/02/08 03:35:45;;;;;;;7.80;1.77;;;15.50;72.50;;;;;;5064757;28;20115;-58
2024/02/08 03:38:12;;;;;;;5.60;1.80;;;15.50;72.40;;;;;;5062008;28;20081;-60
2024/02/08 03:40:38;;;;;;;8.32;1.80;;;15.40;72.50;;;;;;5060814;28;20127;-58
2024/02/08 03:43:05;;;;;;;13.13;2.28;;;15.40;72.70;;;;;;5062332;28;20504;-58
2024/02/08 03:45:31;;;;;;;5.45;1.38;;;15.40;71.90;;;;;;5060055;28;20069;-57
2024/02/08 03:48:01;;;;;;;8.95;2.33;;;15.40;72.00;;;;;;5058251;28;20104;-51
2024/02/08 03:50:34;;;;;;;6.40;1.50;;;15.30;71.60;;;;;;5059226;28;20083;-59
2024/02/08 03:53:01;;;;;;;8.13;2.30;;;15.30;71.50;;;;;;5062275;28;20656;-65
2024/02/08 03:55:28;;;;;;;14.65;2.95;;;15.20;72.20;;;;;;5057545;28;20100;-58
2024/02/08 03:58:06;;;;;;;7.35;2.20;;;15.20;72.20;;;;;;5061766;28;20085;-62
2024/02/08 04:00:35;;;;;;;12.32;2.13;;;15.10;72.90;;;;;;5061275;28;20096;-62
2024/02/08 04:03:10;;;;;;;17.40;2.30;;;15.10;72.90;;;;;;5057368;28;20070;-60
2024/02/08 04:08:32;;;;;;;14.70;2.65;;;15.00;73.70;;;;;;5060703;28;20083;-58
2024/02/08 04:54:43;;;;;;;7.28;1.65;;;15.00;74.50;;;;;;5060235;28;20555;-59
2024/02/08 04:57:10;;;;;;;11.38;2.38;;;15.00;75.00;;;;;;5061683;28;20189;-60
2024/02/08 04:59:44;;;;;;;7.95;2.10;;;14.90;75.80;;;;;;5059195;28;20073;-61
2024/02/08 05:02:11;;;;;;;10.35;2.35;;;14.80;76.20;;;;;;5060022;28;21628;-61
2024/02/08 05:04:38;;;;;;;8.82;2.17;;;14.70;76.20;;;;;;5060400;28;20101;-60
2024/02/08 05:07:09;;;;;;;9.15;2.03;;;14.70;76.60;;;;;;5063658;28;20077;-61
2024/02/08 05:09:36;;;;;;;8.00;1.55;;;14.70;76.30;;;;;;5060171;28;20077;-54
2024/02/08 05:12:05;;;;;;;8.43;1.65;;;14.70;76.10;;;;;;5058626;28;20522;-62
2024/02/08 05:14:35;;;;;;;4.68;1.40;;;14.70;76.10;;;;;;5060043;28;20123;-64
2024/02/08 05:17:03;;;;;;;9.30;2.38;;;14.70;76.30;;;;;;5061163;28;20077;-59
2024/02/08 05:19:29;;;;;;;9.07;2.10;;;14.70;76.10;;;;;;5062588;28;20168;-63
2024/02/08 05:21:58;;;;;;;11.32;2.28;;;14.60;76.50;;;;;;5061392;28;20080;-63
2024/02/08 05:24:30;;;;;;;6.60;2.08;;;14.60;77.20;;;;;;5061471;28;20578;-63
2024/02/08 05:26:57;;;;;;;4.90;2.17;;;14.50;77.30;;;;;;5058443;28;20130;-62
2024/02/08 05:29:24;;;;;;;5.63;1.83;;;14.60;76.20;;;;;;5058175;28;20569;-63
2024/02/08 05:31:51;;;;;;;7.10;2.08;;;14.60;76.00;;;;;;5061813;28;20109;-58
2024/02/08 05:34:18;;;;;;;6.95;1.48;;;14.60;75.70;;;;;;5060651;28;20083;-59
2024/02/08 05:36:45;;;;;;;11.63;1.70;;;14.70;75.30;;;;;;5060464;28;20074;-54
2024/02/08 05:39:23;;;;;;;3.38;1.35;;;14.70;74.80;;;;;;5059117;28;20143;-65
2024/02/08 05:41:53;;;;;;;4.10;1.27;;;14.80;72.90;;;;;;5061449;28;20196;-58
2024/02/08 05:44:20;;;;;;;3.88;1.35;;;14.90;72.50;;;;;;5057268;28;20077;-62
2024/02/08 05:46:48;;;;;;;2.67;1.13;;;15.00;72.90;;;;;;5061417;28;20069;-62
2024/02/08 05:49:14;;;;;;;4.00;1.27;;;15.00;73.10;;;;;;5058519;28;20139;-63
2024/02/08 05:52:15;;;;;;;4.25;1.45;;;15.00;73.50;;;;;;5058923;28;20496;-61
2024/02/08 05:54:40;;;;;;;9.15;1.55;;;15.00;73.90;;;;;;5059255;28;20144;-61
2024/02/08 05:57:06;;;;;;;5.60;1.58;;;14.90;74.00;;;;;;5058557;28;20097;-59
2024/02/08 05:59:33;;;;;;;4.45;1.33;;;14.90;74.40;;;;;;5061217;28;20510;-59
2024/02/08 06:02:01;;;;;;;5.80;1.30;;;14.90;74.20;;;;;;5067541;28;20542;-62
2024/02/08 06:04:37;;;;;;;6.32;1.55;;;14.90;74.30;;;;;;5067614;28;20088;-64
2024/02/08 06:07:06;;;;;;;2.50;1.20;;;14.90;74.50;;;;;;5069567;28;20073;-64
2024/02/08 06:09:52;;;;;;;2.85;1.30;;;14.80;75.10;;;;;;5067616;28;20065;-64
2024/02/08 06:12:42;;;;;;;8.57;1.40;;;14.70;75.20;;;;;;5067599;28;20108;-64
2024/02/08 06:15:24;;;;;;;8.65;1.50;;;14.70;75.10;;;;;;5067049;28;20069;-64
2024/02/08 06:17:57;;;;;;;3.88;1.48;;;14.70;74.90;;;;;;5067842;28;20125;-63
2024/02/08 06:20:43;;;;;;;8.63;1.83;;;14.60;75.00;;;;;;5067851;28;20077;-64
2024/02/08 06:23:16;;;;;;;5.80;1.73;;;14.50;75.70;;;;;;5067331;28;20435;-63
2024/02/08 06:26:27;;;;;;;8.90;2.03;;;14.50;76.20;;;;;;5069359;28;20131;-64
2024/02/08 06:28:37;;;;;;;11.40;2.83;;;14.40;76.50;;;;;;5068312;28;20172;-68
2024/02/08 06:31:08;;;;;;;9.13;2.60;;;14.20;76.40;;;;;;5068535;28;20077;-65
2024/02/08 06:34:09;;;;;;;7.15;1.67;;;14.20;76.70;;;;;;5068091;28;20551;-64
2024/02/08 06:36:33;;;;;;;8.95;2.00;;;14.10;76.20;;;;;;5068501;28;20115;-64
2024/02/08 06:39:44;;;;;;;8.57;2.40;;;14.10;76.80;;;;;;5067200;28;20084;-64
2024/02/08 06:42:07;;;;;;;10.43;2.63;;;14.10;77.30;;;;;;5065618;28;20135;-64
2024/02/08 06:47:29;;;;;;;17.27;3.58;;;14.00;78.00;;;;;;5067435;28;20085;-64
2024/02/08 07:37:19;;;;;;;19.98;6.15;;;14.70;76.20;;;;;;5066577;28;20080;-61
2024/02/08 07:40:00;;;;;;;9.93;4.82;;;14.70;75.80;;;;;;5066701;28;20103;-61
2024/02/08 07:42:32;;;;;;;15.30;4.60;;;14.50;75.00;;;;;;5065052;28;20159;-60
2024/02/08 07:45:05;;;;;;;12.68;3.50;;;14.10;75.30;;;;;;5067302;28;21106;-61
2024/02/08 07:47:35;;;;;;;10.95;4.03;;;14.00;76.20;;;;;;5067390;28;20073;-62
2024/02/08 07:50:04;;;;;;;14.10;3.58;;;13.90;76.80;;;;;;5067770;28;20114;-61
2024/02/08 07:52:58;;;;;;;17.92;3.78;;;13.90;76.80;;;;;;5065437;28;20104;-61
2024/02/08 07:55:46;;;;;;;14.65;3.65;;;13.80;76.80;;;;;;5066609;28;20081;-61
2024/02/08 07:58:08;;;;;;;13.88;4.15;;;13.60;77.50;;;;;;5066348;28;20089;-62
2024/02/08 08:03:09;;;;;;;12.63;5.05;;;13.50;79.20;;;;;;5068073;28;20160;-62
2024/02/08 08:05:42;;;;;;;17.10;6.00;;;13.50;78.80;;;;;;5068070;28;20417;-62
2024/02/08 08:08:36;;;;;;;15.02;6.15;;;13.20;79.60;;;;;;5066238;28;20130;-62
2024/02/08 08:11:06;;;;;;;20.48;6.90;;;13.20;80.30;;;;;;5067410;28;20085;-61
2024/02/08 08:19:10;;;;;;;17.52;4.47;;;13.20;81.70;;;;;;5066820;28;20214;-61
2024/02/08 08:24:28;;;;;;;21.05;4.82;;;13.10;82.40;;;;;;5066743;28;20134;-61
2024/02/08 08:29:43;;;;;;;15.55;4.60;;;12.90;84.20;;;;;;5068765;28;20160;-61
2024/02/08 08:37:45;;;;;;;20.55;5.85;;;12.80;85.70;;;;;;5067214;28;20251;-61
2024/02/08 08:40:37;;;;;;;21.52;5.97;;;12.80;86.30;;;;;;5066666;28;20073;-61
2024/02/08 08:43:18;;;;;;;18.92;5.20;;;12.60;87.60;;;;;;5066195;28;20105;-61
2024/02/08 08:45:52;;;;;;;19.92;6.07;;;12.70;87.70;;;;;;5063819;28;20085;-60
2024/02/08 08:48:29;;;;;;;14.60;4.95;;;12.80;87.80;;;;;;5065129;28;20108;-60
2024/02/08 08:51:10;;;;;;;17.38;5.22;;;12.70;87.30;;;;;;5064610;28;20544;-59
2024/02/08 08:53:43;;;;;;;18.33;5.10;;;12.70;87.90;;;;;;5067397;28;20149;-60
2024/02/08 08:56:13;;;;;;;15.90;5.40;;;12.50;88.40;;;;;;5079146;28;20160;-60
2024/02/08 08:58:40;;;;;;;16.42;6.55;;;12.50;89.40;;;;;;5066106;28;20077;-61
2024/02/08 09:01:21;;;;;;;17.73;6.18;;;12.50;89.90;;;;;;5063599;28;20533;-61
2024/02/08 09:04:22;;;;;;;16.27;5.68;;;12.50;90.00;;;;;;5067050;28;20143;-61
2024/02/08 09:06:49;;;;;;;20.48;5.45;;;12.50;90.30;;;;;;5064547;28;20084;-60
2024/02/08 09:09:27;;;;;;;13.15;4.13;;;12.40;90.60;;;;;;5066491;28;20929;-59
2024/02/08 09:11:57;;;;;;;11.05;3.88;;;12.50;90.90;;;;;;5065749;28;20111;-63
2024/02/08 09:14:30;;;;;;;9.27;3.42;;;12.40;91.30;;;;;;5066474;28;20491;-60
2024/02/08 09:16:57;;;;;;;8.55;3.30;;;12.40;91.50;;;;;;5066678;28;20077;-62
2024/02/08 09:19:29;;;;;;;14.90;4.07;;;12.30;91.40;;;;;;5065591;28;20532;-60
2024/02/08 09:21:59;;;;;;;12.32;3.92;;;12.40;91.30;;;;;;5065569;28;20159;-60
2024/02/08 09:24:26;;;;;;;9.13;3.75;;;12.40;91.10;;;;;;5066084;28;20088;-61
2024/02/08 09:29:56;;;;;;;15.15;9.25;;;12.40;91.30;;;;;;5056393;28;20155;-60
2024/02/08 09:35:16;;;;;;;14.23;5.05;;;12.30;91.40;;;;;;5069190;28;21565;-60
2024/02/08 09:37:45;;;;;;;16.13;5.60;;;12.30;91.60;;;;;;5069979;28;20080;-60
2024/02/08 09:40:20;;;;;;;14.75;5.18;;;12.20;91.90;;;;;;5069221;28;20122;-60
2024/02/08 09:42:57;;;;;;;18.05;5.88;;;12.10;92.10;;;;;;5069761;28;20445;-60
2024/02/08 09:48:11;;;;;;;13.68;5.60;;;12.20;92.40;;;;;;5070389;28;20107;-60
2024/02/08 09:50:47;;;;;;;21.20;5.82;;;12.10;92.50;;;;;;5068718;28;20112;-60
2024/02/08 09:53:27;;;;;;;24.58;5.88;;;12.10;92.70;;;;;;5070657;28;20436;-61
2024/02/08 09:55:57;;;;;;;13.88;5.60;;;12.00;92.80;;;;;;5069468;28;20080;-60
2024/02/08 09:58:37;;;;;;;22.88;5.35;;;11.90;93.00;;;;;;5069470;28;20077;-60
2024/02/08 10:01:30;;;;;;;14.73;5.45;;;12.00;93.00;;;;;;5068623;28;20073;-60
2024/02/08 10:04:07;;;;;;;24.50;6.43;;;12.00;93.10;;;;;;5070231;28;20158;-61
2024/02/08 10:12:40;;;;;;;14.25;4.95;;;12.10;93.00;;;;;;5007761;28;20130;-60
2024/02/08 10:15:14;;;;;;;17.40;4.78;;;12.20;93.10;;;;;;5065200;28;20147;-62
2024/02/08 10:17:51;;;;;;;11.63;4.32;;;12.20;93.00;;;;;;5069620;28;20077;-62
2024/02/08 10:28:25;;;;;;;9.95;3.15;;;12.40;92.90;;;;;;5070433;28;20143;-60
2024/02/08 10:30:59;;;;;;;9.90;2.83;;;12.50;93.50;;;;;;5069243;28;20077;-60
2024/02/08 10:33:35;;;;;;;13.27;3.08;;;12.60;93.00;;;;;;5068758;28;21362;-60
2024/02/08 10:36:16;;;;;;;11.40;2.92;;;12.60;92.90;;;;;;5067994;28;20081;-61
2024/02/08 10:38:56;;;;;;;10.23;3.10;;;12.70;93.00;;;;;;5068208;28;20425;-62
2024/02/08 10:44:29;;;;;;;9.15;2.63;;;12.70;93.00;;;;;;5056876;28;20092;-60
2024/02/08 10:47:09;;;;;;;4.30;2.50;;;12.80;93.20;;;;;;5068174;28;20416;-60
2024/02/08 10:49:44;;;;;;;6.65;2.25;;;12.90;93.10;;;;;;5068159;28;20117;-60
2024/02/08 10:52:12;;;;;;;9.57;2.00;;;12.90;92.90;;;;;;5067839;28;20166;-60
2024/02/08 10:54:51;;;;;;;9.73;2.40;;;13.00;93.00;;;;;;5068246;28;20077;-61
2024/02/08 10:57:39;;;;;;;7.68;2.15;;;13.10;92.90;;;;;;5068149;28;20558;-61
2024/02/08 11:03:07;;;;;;;6.13;2.47;;;13.20;92.80;;;;;;5068377;28;20151;-60
2024/02/08 11:05:48;;;;;;;8.55;2.10;;;13.20;92.90;;;;;;5066971;28;20092;-61
2024/02/08 11:08:24;;;;;;;7.97;2.33;;;13.30;93.00;;;;;;5069147;28;20084;-60
2024/02/08 11:10:58;;;;;;;8.23;2.30;;;13.40;93.10;;;;;;5067719;28;20084;-60
2024/02/08 11:13:30;;;;;;;6.85;2.20;;;13.40;93.20;;;;;;5069101;28;20579;-61
2024/02/08 11:16:19;;;;;;;14.88;3.15;;;13.40;92.60;;;;;;5068896;28;20084;-60
2024/02/08 11:18:51;;;;;;;4.82;2.00;;;13.40;92.70;;;;;;5067544;28;20069;-60
2024/02/08 11:21:24;;;;;;;7.30;2.30;;;13.40;92.80;;;;;;5068550;28;20799;-60
2024/02/08 11:23:54;;;;;;;8.07;1.80;;;13.40;92.80;;;;;;5067963;28;20089;-61
2024/02/08 11:26:25;;;;;;;10.38;2.20;;;13.50;92.90;;;;;;5068561;28;20080;-60
2024/02/08 11:29:04;;;;;;;9.65;1.67;;;13.50;92.70;;;;;;5068591;28;20073;-61
2024/02/08 11:31:41;;;;;;;5.82;2.22;;;13.50;92.80;;;;;;5067904;28;20080;-61
2024/02/08 11:34:15;;;;;;;13.85;2.38;;;13.60;92.90;;;;;;5066108;28;20949;-60
2024/02/08 11:36:52;;;;;;;11.45;2.00;;;13.70;92.80;;;;;;5066680;28;20455;-60
2024/02/08 11:39:28;;;;;;;5.93;2.25;;;13.70;92.80;;;;;;5067305;28;20068;-60
2024/02/08 11:42:05;;;;;;;8.95;2.88;;;13.60;92.70;;;;;;5068936;28;20076;-60
2024/02/08 11:44:36;;;;;;;12.65;6.63;;;13.60;92.90;;;;;;5068320;28;20150;-61
2024/02/08 11:47:17;;;;;;;30.13;19.77;;;13.60;92.80;;;;;;5067965;28;20077;-61
2024/02/08 11:50:00;;;;;;;37.10;22.10;;;13.50;92.80;;;;;;5066171;28;20144;-62
2024/02/08 11:52:27;;;;;;;28.73;17.33;;;13.50;93.00;;;;;;5066999;28;20101;-62
2024/02/08 11:55:01;;;;;;;22.75;12.32;;;13.50;93.20;;;;;;5068471;28;20077;-62
2024/02/08 11:57:36;;;;;;;22.85;10.57;;;13.50;93.10;;;;;;5072167;28;20606;-62
2024/02/08 12:00:17;;;;;;;17.83;9.07;;;13.40;93.10;;;;;;5067283;28;20073;-61
2024/02/08 12:03:01;;;;;;;17.27;7.63;;;13.50;93.00;;;;;;5065367;28;20072;-62
2024/02/08 12:05:29;;;;;;;14.65;6.43;;;13.40;93.10;;;;;;5067568;28;20085;-65
2024/02/08 12:08:09;;;;;;;8.10;5.00;;;13.40;93.10;;;;;;5066315;28;20101;-63
2024/02/08 12:10:37;;;;;;;13.10;4.70;;;13.30;93.00;;;;;;5065954;28;20077;-63
2024/02/08 12:13:05;;;;;;;11.25;4.90;;;13.30;92.90;;;;;;5067183;28;20128;-62
2024/02/08 12:15:34;;;;;;;16.77;4.70;;;13.30;93.00;;;;;;5067961;28;20129;-62
2024/02/08 12:18:05;;;;;;;12.50;4.30;;;13.40;92.90;;;;;;5065735;28;20076;-62
2024/02/08 12:20:32;;;;;;;9.20;4.07;;;13.40;93.10;;;;;;5065712;28;20077;-63
2024/02/08 12:23:01;;;;;;;9.00;3.90;;;13.40;92.90;;;;;;5067682;28;20108;-62
2024/02/08 12:25:29;;;;;;;8.80;4.15;;;13.40;92.80;;;;;;5076111;28;20065;-62
2024/02/08 12:28:09;;;;;;;11.52;3.67;;;13.40;92.80;;;;;;5066211;28;20112;-63
2024/02/08 12:30:39;;;;;;;6.90;3.83;;;13.20;92.60;;;;;;5067101;28;20553;-63
2024/02/08 12:33:09;;;;;;;7.72;3.38;;;13.20;92.80;;;;;;5066472;28;20104;-61
2024/02/08 12:35:41;;;;;;;16.08;4.20;;;13.20;92.90;;;;;;5067162;28;20077;-61
2024/02/08 12:38:08;;;;;;;12.40;3.78;;;13.20;93.20;;;;;;5066703;28;20290;-61
2024/02/08 12:40:35;;;;;;;11.70;3.90;;;13.20;93.20;;;;;;5066048;28;20190;-62
2024/02/08 12:43:07;;;;;;;8.75;3.50;;;13.20;93.30;;;;;;5066347;28;20077;-61
2024/02/08 12:45:34;;;;;;;10.15;3.75;;;13.30;93.50;;;;;;5066622;28;20142;-61
2024/02/08 12:48:04;;;;;;;8.45;3.80;;;13.30;93.90;;;;;;5063319;28;20077;-62
2024/02/08 12:50:34;;;;;;;10.93;4.43;;;13.40;93.60;;;;;;5065214;28;20119;-62
2024/02/08 12:53:01;;;;;;;12.98;4.30;;;13.30;93.70;;;;;;5063847;28;20155;-62
2024/02/08 12:55:29;;;;;;;8.02;3.30;;;13.30;93.70;;;;;;5063732;28;20138;-62
2024/02/08 12:58:01;;;;;;;7.13;3.80;;;13.30;94.00;;;;;;5065641;28;20073;-62
2024/02/08 13:00:34;;;;;;;10.73;3.72;;;13.30;93.70;;;;;;5065703;28;20080;-62
2024/02/08 13:03:08;;;;;;;12.48;4.43;;;13.30;94.00;;;;;;5065650;28;20213;-63
2024/02/08 13:05:36;;;;;;;11.65;3.70;;;13.30;94.00;;;;;;5064437;28;20438;-62
2024/02/08 13:08:03;;;;;;;17.30;3.95;;;13.30;94.10;;;;;;5065094;28;20073;-63
2024/02/08 13:10:31;;;;;;;14.27;4.43;;;13.30;94.20;;;;;;5062823;28;20073;-62
2024/02/08 13:13:09;;;;;;;18.25;4.88;;;13.40;94.20;;;;;;5066163;28;20127;-62
2024/02/08 13:15:35;;;;;;;5.90;2.65;;;13.50;94.50;;;;;;5066016;28;20084;-63
2024/02/08 13:18:02;;;;;;;7.88;1.85;;;13.50;94.60;;;;;;5065669;28;20114;-64
2024/02/08 13:20:35;;;;;;;2.30;0.88;;;13.60;95.20;;;;;;5064531;28;20080;-66
2024/02/08 13:23:04;;;;;;;4.32;0.68;;;13.80;96.10;;;;;;5064766;28;20089;-69
2024/02/08 13:25:30;;;;;;;2.70;0.70;;;14.00;96.60;;;;;;5066021;28;20080;-68
2024/02/08 13:27:58;;;;;;;5.18;0.77;;;14.10;96.90;;;;;;5064908;28;20787;-68
2024/02/08 13:30:29;;;;;;;4.40;0.65;;;14.10;98.00;;;;;;5065798;28;20156;-67
2024/02/08 13:32:58;;;;;;;9.90;1.20;;;14.10;97.90;;;;;;5064746;28;20146;-66
2024/02/08 13:35:26;;;;;;;11.27;1.52;;;14.10;97.20;;;;;;5067129;28;20111;-66
2024/02/08 13:37:54;;;;;;;10.80;1.65;;;14.10;96.70;;;;;;5066209;28;20069;-66
2024/02/08 13:40:25;;;;;;;17.95;2.22;;;14.10;96.80;;;;;;5065313;28;20073;-66
2024/02/08 13:42:56;;;;;;;25.95;2.13;;;14.00;97.00;;;;;;5064891;28;20131;-66
2024/02/08 13:45:24;;;;;;;12.57;1.63;;;14.00;97.50;;;;;;5066027;28;20570;-68
2024/02/08 13:47:55;;;;;;;15.88;1.98;;;14.00;97.00;;;;;;5065613;28;20069;-67
2024/02/08 13:50:28;;;;;;;11.73;2.53;;;14.00;96.30;;;;;;5064098;28;20226;-64
2024/02/08 13:52:55;;;;;;;14.55;3.22;;;14.00;94.40;;;;;;5066017;28;20191;-65
2024/02/08 13:55:25;;;;;;;22.10;3.15;;;14.20;93.20;;;;;;5065999;28;20081;-68
2024/02/08 13:57:53;;;;;;;13.55;3.10;;;14.20;92.80;;;;;;5064651;28;20447;-66
2024/02/08 14:00:21;;;;;;;15.90;3.20;;;14.20;92.40;;;;;;5064759;28;20077;-66
2024/02/08 14:02:54;;;;;;;29.27;3.38;;;14.20;92.40;;;;;;5064985;28;20153;-64
2024/02/08 14:05:23;;;;;;;15.00;2.97;;;14.20;92.40;;;;;;5065515;28;20511;-65
2024/02/08 14:07:54;;;;;;;18.05;2.85;;;14.20;92.60;;;;;;5065284;28;20081;-67
2024/02/08 14:10:27;;;;;;;13.23;2.65;;;14.20;92.70;;;;;;5066018;28;20536;-68
2024/02/08 14:13:28;;;;;;;8.27;2.25;;;14.20;92.90;;;;;;5065380;28;20105;-66
2024/02/08 14:15:48;;;;;;;10.10;2.88;;;14.10;93.40;;;;;;5065358;28;20091;-65
2024/02/08 14:18:22;;;;;;;7.18;2.20;;;14.10;93.70;;;;;;5064613;28;20077;-66
2024/02/08 14:20:52;;;;;;;6.68;2.10;;;14.10;94.00;;;;;;5065074;28;20080;-66
2024/02/08 14:23:29;;;;;;;5.55;1.30;;;14.00;94.40;;;;;;5068889;28;20078;-65
2024/02/08 14:26:30;;;;;;;4.43;1.30;;;14.00;96.20;;;;;;5071252;28;20076;-66
2024/02/08 14:28:56;;;;;;;5.22;1.38;;;13.80;97.40;;;;;;5067139;28;20077;-65
2024/02/08 14:31:22;;;;;;;4.03;1.45;;;13.70;98.00;;;;;;5069782;28;20127;-67
2024/02/08 14:33:48;;;;;;;6.45;1.80;;;13.60;98.10;;;;;;5068805;28;20143;-68
2024/02/08 14:36:16;;;;;;;11.25;3.05;;;13.50;97.60;;;;;;5069442;28;20105;-67
2024/02/08 14:38:45;;;;;;;15.45;3.03;;;13.60;94.20;;;;;;5068188;28;20077;-65
2024/02/08 14:41:33;;;;;;;11.45;2.47;;;13.70;92.50;;;;;;5068952;28;20077;-66
2024/02/08 14:44:05;;;;;;;14.75;3.25;;;13.80;91.90;;;;;;5065064;28;20091;-64
2024/02/08 14:46:39;;;;;;;16.30;2.60;;;13.80;91.30;;;;;;5069415;28;20073;-66
2024/02/08 14:49:17;;;;;;;14.75;2.63;;;13.80;91.00;;;;;;5068834;28;20614;-64
2024/02/08 14:51:49;;;;;;;30.20;2.92;;;13.80;90.60;;;;;;5068283;28;20076;-66
2024/02/08 14:54:18;;;;;;;17.63;2.92;;;13.80;90.30;;;;;;5069428;28;20570;-66
2024/02/08 14:57:03;;;;;;;20.63;3.38;;;13.80;90.20;;;;;;5069566;28;20105;-64
2024/02/08 14:59:50;;;;;;;13.00;2.60;;;13.80;90.20;;;;;;5067747;28;20077;-63
2024/02/08 15:02:21;;;;;;;12.50;2.43;;;13.80;90.10;;;;;;5067952;28;20095;-66
2024/02/08 15:04:53;;;;;;;17.27;2.58;;;13.80;90.10;;;;;;5067598;28;20171;-67
2024/02/08 15:10:10;;;;;;;6.60;2.05;;;13.80;90.10;;;;;;5067231;28;20089;-65
2024/02/08 15:13:11;;;;;;;16.67;2.45;;;13.80;89.60;;;;;;5068126;28;20112;-64
2024/02/08 15:15:33;;;;;;;11.43;2.53;;;13.80;89.20;;;;;;5066362;28;20081;-68
2024/02/08 15:18:11;;;;;;;18.80;2.30;;;13.80;88.90;;;;;;5067646;28;20084;-66
2024/02/08 15:20:45;;;;;;;8.02;1.90;;;13.80;88.60;;;;;;5068376;28;20097;-66
2024/02/08 15:23:31;;;;;;;10.50;1.90;;;13.80;87.90;;;;;;5068816;28;20069;-66
2024/02/08 15:26:12;;;;;;;7.63;1.80;;;13.80;87.90;;;;;;5068694;28;20525;-66
2024/02/08 15:28:42;;;;;;;9.60;1.92;;;13.80;87.30;;;;;;5067255;28;20129;-67
2024/02/08 15:34:19;;;;;;;6.80;2.00;;;13.80;87.10;;;;;;5067179;28;20119;-67
2024/02/08 15:36:50;;;;;;;7.60;2.08;;;13.80;87.90;;;;;;5067748;28;20077;-65